createdAt,value
2019-03-01T00:01:51.891Z,6.80
2019-03-01T00:05:19.496Z,6.80
2019-03-01T00:08:25.772Z,6.70
2019-03-01T00:11:41.339Z,6.80
2019-03-01T00:15:16.501Z,6.70
2019-03-01T00:18:26.182Z,6.80
2019-03-01T00:21:56.774Z,6.80
2019-03-01T00:25:15.293Z,6.80
2019-03-01T00:28:30.852Z,6.90
2019-03-01T00:31:49.723Z,7.00
2019-03-01T00:34:56.491Z,7.00
2019-03-01T00:38:18.341Z,7.00
2019-03-01T00:41:25.111Z,7.00
2019-03-01T00:44:47.312Z,7.00
2019-03-01T00:47:51.013Z,7.00
2019-03-01T00:50:54.852Z,7.00
2019-03-01T00:53:58.709Z,7.00
2019-03-01T00:57:02.527Z,7.00
2019-03-01T01:00:14.577Z,6.90
2019-03-01T01:03:18.427Z,6.90
2019-03-01T01:06:22.275Z,6.90
2019-03-01T01:09:26.088Z,6.90
2019-03-01T01:12:29.996Z,6.90
2019-03-01T01:15:33.822Z,6.90
2019-03-01T01:18:37.694Z,6.90
2019-03-01T01:21:41.553Z,6.90
2019-03-01T01:24:45.369Z,6.90
2019-03-01T01:27:49.215Z,6.90
2019-03-01T01:30:53.094Z,6.80
2019-03-01T01:33:56.963Z,6.80
2019-03-01T01:37:00.801Z,6.80
2019-03-01T01:40:06.528Z,6.80
2019-03-01T01:43:10.352Z,6.80
2019-03-01T01:46:14.205Z,6.80
2019-03-01T01:49:19.056Z,6.80
2019-03-01T01:52:23.087Z,6.70
2019-03-01T01:55:26.982Z,6.70
2019-03-01T01:58:30.804Z,6.70
2019-03-01T02:01:34.638Z,6.70
2019-03-01T02:04:38.494Z,6.70
2019-03-01T02:07:42.312Z,6.60
2019-03-01T02:10:46.154Z,6.60
2019-03-01T02:13:50.050Z,6.50
2019-03-01T02:16:53.915Z,6.40
2019-03-01T02:19:57.726Z,6.20
2019-03-01T02:23:01.584Z,5.80
2019-03-01T02:26:05.427Z,5.60
2019-03-01T02:29:09.281Z,5.50
2019-03-01T02:32:13.122Z,5.30
2019-03-01T02:35:18.162Z,5.10
2019-03-01T02:38:22.005Z,4.90
2019-03-01T02:41:25.837Z,4.70
2019-03-01T02:44:29.711Z,4.80
2019-03-01T02:47:33.533Z,5.00
2019-03-01T02:50:37.388Z,5.10
2019-03-01T02:53:41.272Z,5.20
2019-03-01T02:56:45.098Z,5.10
2019-03-01T02:59:48.952Z,5.00
2019-03-01T03:02:52.788Z,4.60
2019-03-01T03:06:04.005Z,4.50
2019-03-01T03:09:08.732Z,4.60
2019-03-01T03:12:12.581Z,4.50
2019-03-01T03:15:18.436Z,4.60
2019-03-01T03:18:22.279Z,4.50
2019-03-01T03:21:26.135Z,4.40
2019-03-01T03:24:29.973Z,4.30
2019-03-01T03:27:33.823Z,4.30
2019-03-01T03:30:37.652Z,4.30
2019-03-01T03:33:41.474Z,4.10
2019-03-01T03:36:45.327Z,3.90
2019-03-01T03:39:49.156Z,3.60
2019-03-01T03:42:53.004Z,3.20
2019-03-01T03:45:56.830Z,2.90
2019-03-01T03:49:00.715Z,2.90
2019-03-01T03:52:04.551Z,3.00
2019-03-01T03:55:13.683Z,3.20
2019-03-01T03:58:17.562Z,3.40
2019-03-01T04:01:21.403Z,3.60
2019-03-01T04:04:25.272Z,3.60
2019-03-01T04:07:29.102Z,3.70
2019-03-01T04:10:32.973Z,3.70
2019-03-01T04:13:36.822Z,3.70
2019-03-01T04:16:40.656Z,3.70
2019-03-01T04:19:44.502Z,3.80
2019-03-01T04:22:48.379Z,3.80
2019-03-01T04:25:52.236Z,3.80
2019-03-01T04:28:56.103Z,3.90
2019-03-01T04:31:59.952Z,4.00
2019-03-01T04:35:04.313Z,4.10
2019-03-01T04:38:08.183Z,4.10
2019-03-01T04:41:12.029Z,4.00
2019-03-01T04:44:15.892Z,4.10
2019-03-01T04:47:19.722Z,4.10
2019-03-01T04:50:23.576Z,4.10
2019-03-01T04:53:27.402Z,4.10
2019-03-01T04:56:31.268Z,4.10
2019-03-01T04:59:35.112Z,4.20
2019-03-01T05:02:38.994Z,4.20
2019-03-01T05:05:42.876Z,4.20
2019-03-01T05:08:46.694Z,4.30
2019-03-01T05:11:50.565Z,4.20
2019-03-01T05:14:54.401Z,4.00
2019-03-01T05:17:58.244Z,3.90
2019-03-01T05:21:02.073Z,3.90
2019-03-01T05:24:05.960Z,4.00
2019-03-01T05:27:09.802Z,4.00
2019-03-01T05:30:15.932Z,4.00
2019-03-01T05:33:19.814Z,4.00
2019-03-01T05:36:23.651Z,4.10
2019-03-01T05:39:27.492Z,4.20
2019-03-01T05:42:31.383Z,4.20
2019-03-01T05:45:35.272Z,4.30
2019-03-01T05:48:39.096Z,4.30
2019-03-01T05:51:42.957Z,4.30
2019-03-01T05:54:46.812Z,4.40
2019-03-01T05:58:19.061Z,4.40
2019-03-01T06:01:25.923Z,4.50
2019-03-01T06:04:32.686Z,4.50
2019-03-01T06:07:57.315Z,4.50
2019-03-01T06:11:02.548Z,4.50
2019-03-01T06:14:25.761Z,4.60
2019-03-01T06:17:54.755Z,4.60
2019-03-01T06:21:36.531Z,4.60
2019-03-01T06:25:02.779Z,4.80
2019-03-01T06:28:23.829Z,4.80
2019-03-01T06:31:48.443Z,4.90
2019-03-01T06:35:01.236Z,4.90
2019-03-01T06:38:30.973Z,4.80
2019-03-01T06:42:06.552Z,4.50
2019-03-01T06:45:25.012Z,4.50
2019-03-01T06:48:33.391Z,4.60
2019-03-01T06:51:37.218Z,4.50
2019-03-01T06:54:41.107Z,4.60
2019-03-01T06:57:44.859Z,4.60
2019-03-01T07:00:50.668Z,4.60
2019-03-01T07:03:54.897Z,4.70
2019-03-01T07:06:58.737Z,4.80
2019-03-01T07:10:02.601Z,5.00
2019-03-01T07:13:06.544Z,5.20
2019-03-01T07:16:10.657Z,5.30
2019-03-01T07:19:14.463Z,5.30
2019-03-01T07:22:18.364Z,5.50
2019-03-01T07:25:22.320Z,5.50
2019-03-01T07:28:26.244Z,5.90
2019-03-01T07:31:30.062Z,6.80
2019-03-01T07:34:33.969Z,7.70
2019-03-01T07:37:37.796Z,8.80
2019-03-01T07:40:41.978Z,10.40
2019-03-01T07:43:45.822Z,11.40
2019-03-01T07:46:52.858Z,11.40
2019-03-01T07:49:55.189Z,10.70
2019-03-01T07:53:00.226Z,10.30
2019-03-01T07:56:05.273Z,10.10
2019-03-01T07:59:09.478Z,9.50
2019-03-01T08:02:13.366Z,9.00
2019-03-01T08:05:17.162Z,9.00
2019-03-01T08:08:20.994Z,9.00
2019-03-01T08:11:24.844Z,9.80
2019-03-01T08:14:31.539Z,10.00
2019-03-01T08:17:34.182Z,9.50
2019-03-01T08:20:38.014Z,9.30
2019-03-01T08:23:41.865Z,9.40
2019-03-01T08:26:45.785Z,9.20
2019-03-01T08:29:49.610Z,9.00
2019-03-01T08:32:53.464Z,9.00
2019-03-01T08:35:57.297Z,8.90
2019-03-01T08:39:04.933Z,8.90
2019-03-01T08:42:06.639Z,9.00
2019-03-01T08:45:13.104Z,8.80
2019-03-01T08:48:16.972Z,8.80
2019-03-01T08:51:22.627Z,8.80
2019-03-01T08:54:27.394Z,8.90
2019-03-01T08:57:31.442Z,8.90
2019-03-01T09:00:38.502Z,9.00
2019-03-01T09:03:47.986Z,9.00
2019-03-01T09:06:51.811Z,9.10
2019-03-01T09:09:57.296Z,8.80
2019-03-01T09:13:01.192Z,8.30
2019-03-01T09:16:05.102Z,8.20
2019-03-01T09:19:08.960Z,7.90
2019-03-01T09:22:12.782Z,8.00
2019-03-01T09:25:16.681Z,8.00
2019-03-01T09:28:20.550Z,8.00
2019-03-01T09:31:24.393Z,8.20
2019-03-01T09:34:31.871Z,8.40
2019-03-01T09:37:34.002Z,8.50
2019-03-01T09:40:37.884Z,8.60
2019-03-01T09:43:42.454Z,8.60
2019-03-01T09:46:46.289Z,8.70
2019-03-01T09:49:50.115Z,8.60
2019-03-01T09:52:55.558Z,8.50
2019-03-01T09:56:00.156Z,8.10
2019-03-01T09:59:04.272Z,7.80
2019-03-01T10:02:08.152Z,7.90
2019-03-01T10:05:13.705Z,8.10
2019-03-01T10:08:17.588Z,8.50
2019-03-01T10:11:21.423Z,9.10
2019-03-01T10:14:25.259Z,9.90
2019-03-01T10:17:29.098Z,10.20
2019-03-01T10:20:32.935Z,10.40
2019-03-01T10:23:36.842Z,10.30
2019-03-01T10:26:40.690Z,10.60
2019-03-01T10:29:44.553Z,10.90
2019-03-01T10:32:48.413Z,10.80
2019-03-01T10:35:52.294Z,10.40
2019-03-01T10:38:56.121Z,10.50
2019-03-01T10:41:59.978Z,10.60
2019-03-01T10:45:04.875Z,10.20
2019-03-01T10:48:08.679Z,10.30
2019-03-01T10:51:12.573Z,10.40
2019-03-01T10:54:16.406Z,10.10
2019-03-01T10:57:21.661Z,9.90
2019-03-01T11:00:30.775Z,9.80
2019-03-01T11:03:34.635Z,9.70
2019-03-01T11:06:38.472Z,9.30
2019-03-01T11:09:42.319Z,9.40
2019-03-01T11:12:46.208Z,9.50
2019-03-01T11:15:50.067Z,9.30
2019-03-01T11:18:53.882Z,9.20
2019-03-01T11:21:57.707Z,9.10
2019-03-01T11:25:01.552Z,8.80
2019-03-01T11:28:05.466Z,8.70
2019-03-01T11:31:09.304Z,8.60
2019-03-01T11:34:13.169Z,8.60
2019-03-01T11:37:17.026Z,8.60
2019-03-01T11:40:31.848Z,8.60
2019-03-01T11:43:35.703Z,8.80
2019-03-01T11:46:39.608Z,8.90
2019-03-01T11:49:43.417Z,9.00
2019-03-01T11:52:47.464Z,8.90
2019-03-01T11:55:51.345Z,8.80
2019-03-01T11:58:55.171Z,8.70
2019-03-01T12:01:59.017Z,8.70
2019-03-01T12:05:02.846Z,8.70
2019-03-01T12:08:06.732Z,8.50
2019-03-01T12:11:10.573Z,8.40
2019-03-01T12:14:14.437Z,8.30
2019-03-01T12:17:18.282Z,8.20
2019-03-01T12:20:26.719Z,8.20
2019-03-01T12:23:30.568Z,8.10
2019-03-01T12:26:35.310Z,8.20
2019-03-01T12:29:39.152Z,8.40
2019-03-01T12:32:42.987Z,8.40
2019-03-01T12:35:46.861Z,8.40
2019-03-01T12:38:50.670Z,8.40
2019-03-01T12:41:54.564Z,8.30
2019-03-01T12:44:58.476Z,8.10
2019-03-01T12:48:02.316Z,8.00
2019-03-01T12:51:06.168Z,7.80
2019-03-01T12:54:09.993Z,7.60
2019-03-01T12:57:14.376Z,7.70
2019-03-01T13:00:20.837Z,7.60
2019-03-01T13:03:24.692Z,7.60
2019-03-01T13:06:28.534Z,7.40
2019-03-01T13:09:32.402Z,7.30
2019-03-01T13:12:36.295Z,7.30
2019-03-01T13:15:40.336Z,7.20
2019-03-01T13:18:47.762Z,7.20
2019-03-01T13:21:50.116Z,7.10
2019-03-01T13:24:54.228Z,7.00
2019-03-01T13:27:58.010Z,7.10
2019-03-01T13:31:01.864Z,7.10
2019-03-01T13:34:05.672Z,6.80
2019-03-01T13:37:14.721Z,6.80
2019-03-01T13:40:20.956Z,6.80
2019-03-01T13:43:27.428Z,6.80
2019-03-01T13:46:33.392Z,6.80
2019-03-01T13:49:36.498Z,6.80
2019-03-01T13:52:41.758Z,6.70
2019-03-01T13:55:45.642Z,6.70
2019-03-01T13:58:49.475Z,6.60
2019-03-01T14:01:53.772Z,6.50
2019-03-01T14:04:57.836Z,6.50
2019-03-01T14:08:08.671Z,6.50
2019-03-01T14:11:07.445Z,6.50
2019-03-01T14:14:11.273Z,6.60
2019-03-01T14:17:15.132Z,6.60
2019-03-01T14:20:21.314Z,6.70
2019-03-01T14:23:25.945Z,6.50
2019-03-01T14:26:29.942Z,6.50
2019-03-01T14:29:34.788Z,6.40
2019-03-01T14:32:39.212Z,6.40
2019-03-01T14:35:43.018Z,6.50
2019-03-01T14:38:46.887Z,6.50
2019-03-01T14:41:50.743Z,6.40
2019-03-01T14:44:54.575Z,6.40
2019-03-01T14:47:58.431Z,6.40
2019-03-01T14:51:02.442Z,6.20
2019-03-01T14:54:07.111Z,6.20
2019-03-01T14:57:13.819Z,6.30
2019-03-01T15:00:20.721Z,6.30
2019-03-01T15:03:33.039Z,6.10
2019-03-01T15:06:37.291Z,6.10
2019-03-01T15:09:41.150Z,6.00
2019-03-01T15:12:45.020Z,6.00
2019-03-01T15:15:48.862Z,5.90
2019-03-01T15:18:52.736Z,6.00
2019-03-01T15:21:56.592Z,6.00
2019-03-01T15:25:00.923Z,5.90
2019-03-01T15:28:04.771Z,5.80
2019-03-01T15:31:10.023Z,5.80
2019-03-01T15:34:13.877Z,5.80
2019-03-01T15:37:17.732Z,5.80
2019-03-01T15:40:21.573Z,5.70
2019-03-01T15:43:26.476Z,5.70
2019-03-01T15:46:31.075Z,5.60
2019-03-01T15:49:34.951Z,5.60
2019-03-01T15:52:38.785Z,5.60
2019-03-01T15:55:42.697Z,5.60
2019-03-01T15:58:46.809Z,5.60
2019-03-01T16:01:51.022Z,5.60
2019-03-01T16:04:55.102Z,5.60
2019-03-01T16:07:58.962Z,5.60
2019-03-01T16:11:02.778Z,5.50
2019-03-01T16:14:06.634Z,5.50
2019-03-01T16:17:10.541Z,5.50
2019-03-01T16:20:21.050Z,5.50
2019-03-01T16:23:27.516Z,5.40
2019-03-01T16:26:33.581Z,5.40
2019-03-01T16:29:38.781Z,5.40
2019-03-01T16:32:49.528Z,5.40
2019-03-01T16:35:48.406Z,5.40
2019-03-01T16:38:53.024Z,5.30
2019-03-01T16:41:56.846Z,5.40
2019-03-01T16:45:00.744Z,5.30
2019-03-01T16:48:04.850Z,5.30
2019-03-01T16:51:10.142Z,5.30
2019-03-01T16:54:16.363Z,5.30
2019-03-01T16:57:19.648Z,5.40
2019-03-01T17:00:24.603Z,5.40
2019-03-01T17:03:28.443Z,5.40
2019-03-01T17:06:32.324Z,5.40
2019-03-01T17:09:36.223Z,5.40
2019-03-01T17:12:40.054Z,5.40
2019-03-01T17:15:45.518Z,5.40
2019-03-01T17:18:49.617Z,5.40
2019-03-01T17:21:57.042Z,5.40
2019-03-01T17:25:00.940Z,5.30
2019-03-01T17:28:04.782Z,5.30
2019-03-01T17:31:08.802Z,5.40
2019-03-01T17:34:12.658Z,5.30
2019-03-01T17:37:16.588Z,5.30
2019-03-01T17:40:20.639Z,5.40
2019-03-01T17:43:25.945Z,5.40
2019-03-01T17:46:32.987Z,5.30
2019-03-01T17:49:35.503Z,5.40
2019-03-01T17:52:39.362Z,5.30
2019-03-01T17:55:43.212Z,5.30
2019-03-01T17:58:47.048Z,5.30
2019-03-01T18:01:50.913Z,5.30
2019-03-01T18:04:54.782Z,5.40
2019-03-01T18:07:59.813Z,5.40
2019-03-01T18:11:05.445Z,5.40
2019-03-01T18:14:09.583Z,5.50
2019-03-01T18:17:13.466Z,5.40
2019-03-01T18:20:17.332Z,5.40
2019-03-01T18:23:21.184Z,5.40
2019-03-01T18:26:25.052Z,5.40
2019-03-01T18:29:28.901Z,5.40
2019-03-01T18:32:32.763Z,5.50
2019-03-01T18:35:36.727Z,5.50
2019-03-01T18:38:40.574Z,5.50
2019-03-01T18:41:44.421Z,5.30
2019-03-01T18:44:48.236Z,5.20
2019-03-01T18:47:52.068Z,5.20
2019-03-01T18:50:55.926Z,5.10
2019-03-01T18:54:00.634Z,5.00
2019-03-01T18:57:05.403Z,4.90
2019-03-01T19:00:26.396Z,4.90
2019-03-01T19:03:30.271Z,4.70
2019-03-01T19:06:34.180Z,4.70
2019-03-01T19:09:38.268Z,4.70
2019-03-01T19:12:44.944Z,4.60
2019-03-01T19:15:53.647Z,4.60
2019-03-01T19:18:54.602Z,4.50
2019-03-01T19:21:58.642Z,4.50
2019-03-01T19:25:02.531Z,4.50
2019-03-01T19:28:06.511Z,4.50
2019-03-01T19:31:10.392Z,4.40
2019-03-01T19:34:16.987Z,4.30
2019-03-01T19:37:19.916Z,4.30
2019-03-01T19:40:24.439Z,4.30
2019-03-01T19:43:28.364Z,4.30
2019-03-01T19:46:32.407Z,4.30
2019-03-01T19:49:36.282Z,4.20
2019-03-01T19:52:43.522Z,4.10
2019-03-01T19:55:47.252Z,4.00
2019-03-01T19:58:51.947Z,3.80
2019-03-01T20:01:56.312Z,3.70
2019-03-01T20:05:00.380Z,3.60
2019-03-01T20:08:04.394Z,3.50
2019-03-01T20:11:09.732Z,3.20
2019-03-01T20:14:13.639Z,3.10
2019-03-01T20:17:17.590Z,2.80
2019-03-01T20:20:23.623Z,2.70
2019-03-01T20:23:29.547Z,2.30
2019-03-01T20:26:33.466Z,1.90
2019-03-01T20:33:23.401Z,1.20
2019-03-01T20:36:25.594Z,1.20
2019-03-01T20:39:29.731Z,1.20
2019-03-01T20:42:33.599Z,1.20
2019-03-01T20:45:39.182Z,1.40
2019-03-01T20:48:43.002Z,1.50
2019-03-01T20:51:46.840Z,1.60
2019-03-01T20:54:50.723Z,1.70
2019-03-01T20:57:54.668Z,1.70
2019-03-01T21:00:58.815Z,1.50
2019-03-01T21:04:04.855Z,1.60
2019-03-01T21:07:12.483Z,1.70
2019-03-01T21:10:22.652Z,1.70
2019-03-01T21:13:26.485Z,1.70
2019-03-01T21:16:30.343Z,1.50
2019-03-01T21:19:34.252Z,1.30
2019-03-01T21:22:39.826Z,1.20
2019-03-01T21:25:43.693Z,1.10
2019-03-01T21:28:47.532Z,0.80
2019-03-01T21:31:51.392Z,0.70
2019-03-01T21:34:55.246Z,0.40
2019-03-01T21:37:59.196Z,0.40
2019-03-01T21:41:06.336Z,0.60
2019-03-01T21:44:10.591Z,0.60
2019-03-01T21:47:14.677Z,0.70
2019-03-01T21:50:18.592Z,0.70
2019-03-01T21:53:22.476Z,0.60
2019-03-01T21:56:26.453Z,0.60
2019-03-01T21:59:30.278Z,0.60
2019-03-01T22:02:34.107Z,0.60
2019-03-01T22:05:37.954Z,0.80
2019-03-01T22:08:44.843Z,0.80
2019-03-01T22:11:49.190Z,0.70
2019-03-01T22:14:52.794Z,0.60
2019-03-01T22:17:56.872Z,0.40
2019-03-01T22:21:00.702Z,0.20
2019-03-01T22:24:04.551Z,-0.10
2019-03-01T22:27:08.388Z,-0.50
2019-03-01T22:30:15.037Z,-0.80
2019-03-01T22:33:20.811Z,-1.10
2019-03-01T22:36:24.358Z,-1.30
2019-03-01T22:39:28.205Z,-1.50
2019-03-01T22:42:32.043Z,-1.70
2019-03-01T22:45:36.320Z,-1.80
2019-03-01T22:48:46.866Z,-2.00
2019-03-01T22:51:45.641Z,-2.10
2019-03-01T22:54:49.496Z,-2.10
2019-03-01T22:57:53.334Z,-2.30
2019-03-01T23:01:00.855Z,-2.30
2019-03-01T23:04:04.842Z,-2.30
2019-03-01T23:07:08.655Z,-2.30
2019-03-01T23:10:12.512Z,-2.20
2019-03-01T23:13:17.000Z,-2.30
2019-03-01T23:16:21.851Z,-2.20
2019-03-01T23:19:25.672Z,-2.10
2019-03-01T23:22:29.548Z,-2.10
2019-03-01T23:25:33.388Z,-2.20
2019-03-01T23:28:37.194Z,-2.10
2019-03-01T23:31:41.056Z,-2.10
2019-03-01T23:34:44.872Z,-2.20
2019-03-01T23:37:48.715Z,-2.30
2019-03-01T23:40:52.626Z,-2.50
2019-03-01T23:43:56.532Z,-2.60
2019-03-01T23:47:02.831Z,-2.60
2019-03-01T23:50:07.881Z,-2.60
2019-03-01T23:53:11.744Z,-2.60
2019-03-01T23:56:15.593Z,-2.60
2019-03-01T23:59:19.429Z,-2.50
